createdAt,value
2017-12-31T00:01:18.892Z,20.63
2017-12-31T00:03:46.482Z,20.60
2017-12-31T00:06:14.067Z,20.59
2017-12-31T00:08:41.584Z,20.57
2017-12-31T00:11:09.101Z,20.56
2017-12-31T00:13:36.680Z,20.56
2017-12-31T00:16:04.264Z,20.56
2017-12-31T00:18:31.843Z,20.56
2017-12-31T00:20:59.397Z,20.56
2017-12-31T00:23:26.949Z,20.57
2017-12-31T00:25:54.477Z,20.59
2017-12-31T00:28:22.025Z,20.59
2017-12-31T00:30:49.607Z,20.60
2017-12-31T00:33:17.135Z,20.60
2017-12-31T00:35:44.690Z,20.62
2017-12-31T00:38:12.276Z,20.62
2017-12-31T00:40:39.795Z,20.63
2017-12-31T00:43:07.404Z,20.65
2017-12-31T00:45:34.922Z,20.66
2017-12-31T00:48:02.442Z,20.68
2017-12-31T00:50:29.990Z,20.70
2017-12-31T00:52:57.547Z,20.71
2017-12-31T00:55:25.072Z,20.73
2017-12-31T00:57:52.614Z,20.74
2017-12-31T01:00:20.170Z,20.75
2017-12-31T01:02:47.800Z,20.75
2017-12-31T01:05:15.356Z,20.75
2017-12-31T01:07:42.936Z,20.74
2017-12-31T01:10:10.494Z,20.71
2017-12-31T01:12:38.050Z,20.66
2017-12-31T01:15:05.562Z,20.63
2017-12-31T01:17:33.099Z,20.63
2017-12-31T01:20:00.651Z,20.63
2017-12-31T01:22:28.215Z,20.65
2017-12-31T01:24:55.805Z,20.68
2017-12-31T01:27:23.359Z,20.70
2017-12-31T01:29:50.945Z,20.72
2017-12-31T01:32:18.466Z,20.75
2017-12-31T01:34:46.086Z,20.77
2017-12-31T01:37:13.608Z,20.78
2017-12-31T01:39:41.159Z,20.79
2017-12-31T01:42:08.714Z,20.79
2017-12-31T01:44:36.268Z,20.80
2017-12-31T01:47:03.824Z,20.81
2017-12-31T01:49:31.343Z,20.79
2017-12-31T01:51:58.928Z,20.81
2017-12-31T01:54:26.479Z,20.82
2017-12-31T01:56:53.994Z,20.82
2017-12-31T01:59:21.506Z,20.82
2017-12-31T02:01:49.087Z,20.83
2017-12-31T02:04:16.672Z,20.82
2017-12-31T02:06:44.196Z,20.79
2017-12-31T02:09:11.742Z,20.75
2017-12-31T02:11:39.258Z,20.70
2017-12-31T02:14:06.811Z,20.65
2017-12-31T02:16:34.363Z,20.61
2017-12-31T02:19:01.893Z,20.59
2017-12-31T02:21:29.419Z,20.56
2017-12-31T02:23:56.999Z,20.53
2017-12-31T02:26:24.559Z,20.52
2017-12-31T02:28:52.144Z,20.51
2017-12-31T02:31:19.723Z,20.51
2017-12-31T02:33:47.242Z,20.52
2017-12-31T02:36:14.828Z,20.53
2017-12-31T02:38:42.379Z,20.54
2017-12-31T02:41:09.908Z,20.55
2017-12-31T02:43:37.511Z,20.57
2017-12-31T02:46:05.075Z,20.58
2017-12-31T02:48:32.605Z,20.61
2017-12-31T02:51:00.127Z,20.64
2017-12-31T02:53:27.682Z,20.66
2017-12-31T02:55:55.213Z,20.67
2017-12-31T02:58:22.772Z,20.69
2017-12-31T03:00:50.320Z,20.70
2017-12-31T03:03:17.886Z,20.70
2017-12-31T03:05:45.412Z,20.71
2017-12-31T03:08:13.030Z,20.71
2017-12-31T03:10:40.584Z,20.71
2017-12-31T03:13:08.110Z,20.71
2017-12-31T03:15:35.667Z,20.72
2017-12-31T03:18:03.191Z,20.71
2017-12-31T03:20:30.779Z,20.73
2017-12-31T03:22:58.326Z,20.73
2017-12-31T03:25:25.847Z,20.75
2017-12-31T03:27:53.433Z,20.75
2017-12-31T03:30:21.057Z,20.75
2017-12-31T03:32:48.619Z,20.76
2017-12-31T03:35:16.140Z,20.76
2017-12-31T03:37:43.756Z,20.76
2017-12-31T03:40:11.313Z,20.76
2017-12-31T03:42:38.831Z,20.76
2017-12-31T03:45:06.448Z,20.75
2017-12-31T03:47:34.033Z,20.76
2017-12-31T03:50:01.552Z,20.76
2017-12-31T03:52:29.212Z,20.76
2017-12-31T03:54:56.769Z,20.78
2017-12-31T03:57:24.351Z,20.77
2017-12-31T03:59:51.902Z,20.78
2017-12-31T04:02:19.485Z,20.78
2017-12-31T04:04:47.007Z,20.78
2017-12-31T04:07:14.558Z,20.76
2017-12-31T04:09:42.140Z,20.78
2017-12-31T04:12:09.662Z,20.79
2017-12-31T04:14:37.231Z,20.77
2017-12-31T04:17:04.805Z,20.76
2017-12-31T04:19:32.326Z,20.73
2017-12-31T04:21:59.948Z,20.69
2017-12-31T04:24:27.539Z,20.64
2017-12-31T04:26:55.062Z,20.64
2017-12-31T04:29:22.625Z,20.62
2017-12-31T04:31:50.151Z,20.60
2017-12-31T04:34:17.670Z,20.60
2017-12-31T04:36:45.220Z,20.58
2017-12-31T04:39:12.734Z,20.58
2017-12-31T04:41:40.258Z,20.58
2017-12-31T04:44:07.843Z,20.58
2017-12-31T04:46:35.362Z,20.57
2017-12-31T04:49:02.922Z,20.59
2017-12-31T04:51:30.543Z,20.59
2017-12-31T04:53:58.095Z,20.60
2017-12-31T04:56:25.615Z,20.59
2017-12-31T04:58:53.176Z,20.62
2017-12-31T05:01:20.694Z,20.63
2017-12-31T05:03:48.210Z,20.65
2017-12-31T05:06:15.824Z,20.65
2017-12-31T05:08:43.383Z,20.67
2017-12-31T05:11:10.937Z,20.66
2017-12-31T05:13:38.562Z,20.62
2017-12-31T05:16:06.082Z,20.59
2017-12-31T05:18:33.607Z,20.55
2017-12-31T05:21:01.196Z,20.49
2017-12-31T05:23:28.714Z,20.44
2017-12-31T05:25:56.239Z,20.42
2017-12-31T05:28:23.790Z,20.42
2017-12-31T05:30:51.312Z,20.40
2017-12-31T05:33:18.863Z,20.40
2017-12-31T05:35:46.414Z,20.37
2017-12-31T05:38:13.963Z,20.34
2017-12-31T05:40:41.519Z,20.33
2017-12-31T05:43:09.069Z,20.34
2017-12-31T05:45:36.655Z,20.36
2017-12-31T05:48:04.170Z,20.40
2017-12-31T05:50:31.788Z,20.44
2017-12-31T05:52:59.360Z,20.48
2017-12-31T05:55:26.915Z,20.52
2017-12-31T05:57:54.503Z,20.54
2017-12-31T06:00:22.024Z,20.52
2017-12-31T06:02:49.845Z,20.49
2017-12-31T06:05:17.402Z,20.46
2017-12-31T06:07:45.160Z,20.41
2017-12-31T06:10:12.682Z,20.38
2017-12-31T06:12:40.295Z,20.34
2017-12-31T06:15:07.879Z,20.31
2017-12-31T06:17:35.434Z,20.28
2017-12-31T06:20:03.060Z,20.28
2017-12-31T06:22:30.581Z,20.28
2017-12-31T06:24:58.102Z,20.31
2017-12-31T06:27:25.687Z,20.32
2017-12-31T06:29:53.210Z,20.37
2017-12-31T06:32:20.726Z,20.46
2017-12-31T06:34:48.274Z,20.53
2017-12-31T06:37:15.862Z,20.60
2017-12-31T06:39:43.415Z,20.65
2017-12-31T06:42:10.962Z,20.66
2017-12-31T06:44:38.544Z,20.67
2017-12-31T06:47:06.158Z,20.64
2017-12-31T06:49:33.678Z,20.62
2017-12-31T06:52:01.398Z,20.59
2017-12-31T06:54:29.028Z,20.59
2017-12-31T06:56:56.612Z,20.58
2017-12-31T06:59:24.135Z,20.59
2017-12-31T07:01:51.684Z,20.59
2017-12-31T07:04:19.198Z,20.62
2017-12-31T07:06:46.753Z,20.67
2017-12-31T07:09:14.384Z,20.74
2017-12-31T07:11:41.902Z,20.83
2017-12-31T07:14:09.419Z,20.92
2017-12-31T07:16:36.974Z,20.98
2017-12-31T07:19:04.498Z,21.00
2017-12-31T07:21:32.018Z,21.03
2017-12-31T07:23:59.790Z,21.08
2017-12-31T07:26:27.318Z,21.14
2017-12-31T07:28:54.874Z,21.14
2017-12-31T07:31:22.488Z,21.08
2017-12-31T07:33:50.019Z,21.04
2017-12-31T07:36:17.609Z,21.03
2017-12-31T07:38:45.163Z,21.03
2017-12-31T07:41:12.679Z,21.03
2017-12-31T07:43:40.261Z,21.05
2017-12-31T07:46:07.845Z,21.09
2017-12-31T07:48:35.407Z,21.11
2017-12-31T07:51:02.935Z,21.12
2017-12-31T07:53:30.563Z,21.14
2017-12-31T07:55:58.148Z,21.13
2017-12-31T07:58:25.666Z,21.15
2017-12-31T08:00:53.218Z,21.13
2017-12-31T08:03:20.805Z,21.15
2017-12-31T08:05:48.334Z,21.13
2017-12-31T08:08:15.911Z,21.12
2017-12-31T08:10:43.500Z,21.13
2017-12-31T08:13:11.024Z,21.10
2017-12-31T08:15:38.591Z,21.11
2017-12-31T08:18:06.124Z,21.07
2017-12-31T08:20:33.647Z,21.05
2017-12-31T08:23:01.212Z,21.07
2017-12-31T08:25:28.777Z,21.05
2017-12-31T08:27:56.494Z,21.09
2017-12-31T08:30:24.070Z,21.13
2017-12-31T08:32:51.643Z,21.17
2017-12-31T08:35:19.228Z,21.21
2017-12-31T08:37:46.839Z,21.23
2017-12-31T08:40:14.428Z,21.24
2017-12-31T08:42:41.994Z,21.23
2017-12-31T08:45:09.546Z,21.25
2017-12-31T08:47:37.114Z,21.27
2017-12-31T08:50:04.644Z,21.24
2017-12-31T08:52:32.198Z,21.25
2017-12-31T08:54:59.724Z,21.28
2017-12-31T08:57:27.317Z,21.32
2017-12-31T08:59:54.875Z,21.33
2017-12-31T09:02:22.396Z,21.35
2017-12-31T09:04:49.916Z,21.35
2017-12-31T09:07:17.543Z,21.33
2017-12-31T09:09:45.082Z,21.27
2017-12-31T09:12:12.615Z,21.25
2017-12-31T09:14:40.212Z,21.27
2017-12-31T09:17:07.828Z,21.27
2017-12-31T09:19:35.358Z,21.24
2017-12-31T09:22:02.964Z,21.22
2017-12-31T09:24:30.558Z,21.18
2017-12-31T09:26:58.144Z,21.16
2017-12-31T09:29:25.729Z,21.15
2017-12-31T09:31:53.258Z,21.13
2017-12-31T09:34:20.828Z,21.10
2017-12-31T09:36:48.423Z,21.10
2017-12-31T09:39:15.955Z,21.11
2017-12-31T09:41:43.552Z,21.14
2017-12-31T09:44:11.107Z,21.15
2017-12-31T09:46:38.630Z,21.19
2017-12-31T09:49:06.194Z,21.20
2017-12-31T09:51:33.788Z,21.19
2017-12-31T09:54:01.326Z,21.22
2017-12-31T09:56:28.843Z,21.24
2017-12-31T09:58:56.425Z,21.26
2017-12-31T10:01:23.946Z,21.28
2017-12-31T10:03:51.466Z,21.27
2017-12-31T10:06:19.058Z,21.28
2017-12-31T10:08:46.616Z,21.27
2017-12-31T10:11:14.134Z,21.26
2017-12-31T10:13:41.732Z,21.29
2017-12-31T10:16:09.265Z,21.29
2017-12-31T10:18:36.859Z,21.30
2017-12-31T10:21:04.387Z,21.30
2017-12-31T10:23:31.972Z,21.32
2017-12-31T10:25:59.498Z,21.33
2017-12-31T10:28:27.093Z,21.35
2017-12-31T10:30:54.648Z,21.32
2017-12-31T10:33:22.174Z,21.31
2017-12-31T10:35:49.731Z,21.30
2017-12-31T10:38:17.291Z,21.30
2017-12-31T10:40:44.816Z,21.30
2017-12-31T10:43:12.346Z,21.30
2017-12-31T10:45:39.877Z,21.29
2017-12-31T10:48:07.440Z,21.29
2017-12-31T10:50:35.020Z,21.29
2017-12-31T10:53:02.581Z,21.29
2017-12-31T10:55:30.103Z,21.29
2017-12-31T10:57:57.707Z,21.29
2017-12-31T11:00:25.328Z,21.29
2017-12-31T11:02:52.947Z,21.27
2017-12-31T11:05:20.467Z,21.26
2017-12-31T11:07:47.998Z,21.28
2017-12-31T11:10:15.550Z,21.29
2017-12-31T11:12:44.007Z,21.30
2017-12-31T11:15:11.588Z,21.32
2017-12-31T11:17:39.146Z,21.33
2017-12-31T11:20:06.678Z,21.35
2017-12-31T11:22:34.235Z,21.34
2017-12-31T11:25:01.752Z,21.33
2017-12-31T11:27:29.278Z,21.34
2017-12-31T11:29:56.870Z,21.34
2017-12-31T11:32:24.422Z,21.34
2017-12-31T11:34:51.982Z,21.35
2017-12-31T11:37:19.498Z,21.37
2017-12-31T11:39:47.026Z,21.35
2017-12-31T11:42:14.565Z,21.34
2017-12-31T11:44:42.094Z,21.31
2017-12-31T11:47:09.721Z,21.31
2017-12-31T11:49:37.244Z,21.32
2017-12-31T11:52:04.780Z,21.27
2017-12-31T11:54:32.305Z,21.28
2017-12-31T11:56:59.837Z,21.27
2017-12-31T11:59:27.358Z,21.24
2017-12-31T12:01:54.892Z,21.25
2017-12-31T12:04:22.451Z,21.28
2017-12-31T12:06:50.040Z,21.28
2017-12-31T12:09:17.632Z,21.30
2017-12-31T12:11:45.225Z,21.31
2017-12-31T12:14:12.778Z,21.32
2017-12-31T12:16:40.327Z,21.33
2017-12-31T12:19:07.876Z,21.33
2017-12-31T12:21:35.394Z,21.33
2017-12-31T12:24:02.967Z,21.34
2017-12-31T12:26:30.608Z,21.35
2017-12-31T12:28:58.234Z,21.38
2017-12-31T12:31:25.875Z,21.37
2017-12-31T12:33:53.404Z,21.38
2017-12-31T12:36:20.927Z,21.43
2017-12-31T12:38:48.476Z,21.49
2017-12-31T12:41:16.040Z,21.47
2017-12-31T12:43:43.562Z,21.44
2017-12-31T12:46:11.096Z,21.44
2017-12-31T12:48:38.674Z,21.46
2017-12-31T12:51:06.253Z,21.48
2017-12-31T12:53:33.790Z,21.50
2017-12-31T12:56:01.363Z,21.55
2017-12-31T12:58:28.953Z,21.60
2017-12-31T13:00:56.487Z,21.42
2017-12-31T13:03:24.030Z,21.21
2017-12-31T13:05:51.562Z,20.87
2017-12-31T13:08:19.094Z,20.60
2017-12-31T13:10:46.623Z,20.33
2017-12-31T13:13:14.246Z,20.32
2017-12-31T13:15:41.840Z,19.93
2017-12-31T13:18:09.435Z,19.61
2017-12-31T13:20:37.031Z,19.42
2017-12-31T13:23:04.625Z,19.50
2017-12-31T13:25:32.166Z,19.65
2017-12-31T13:27:59.770Z,19.73
2017-12-31T13:30:27.310Z,19.85
2017-12-31T13:32:54.878Z,19.93
2017-12-31T13:35:22.474Z,20.00
2017-12-31T13:37:50.041Z,20.05
2017-12-31T13:40:17.599Z,20.07
2017-12-31T13:42:45.204Z,20.10
2017-12-31T13:45:12.768Z,20.11
2017-12-31T13:47:40.339Z,20.13
2017-12-31T13:50:07.868Z,20.13
2017-12-31T13:52:35.422Z,20.15
2017-12-31T13:55:02.959Z,20.14
2017-12-31T13:57:30.528Z,20.15
2017-12-31T13:59:58.084Z,20.17
2017-12-31T14:02:25.613Z,20.19
2017-12-31T14:04:53.191Z,20.22
2017-12-31T14:07:20.695Z,20.24
2017-12-31T14:09:48.317Z,20.26
2017-12-31T14:12:15.846Z,20.29
2017-12-31T14:14:43.370Z,20.31
2017-12-31T14:17:10.932Z,20.31
2017-12-31T14:19:38.456Z,20.34
2017-12-31T14:22:06.039Z,20.36
2017-12-31T14:24:33.599Z,20.36
2017-12-31T14:27:01.132Z,20.36
2017-12-31T14:29:28.694Z,20.36
2017-12-31T14:31:56.299Z,20.38
2017-12-31T14:34:23.826Z,20.39
2017-12-31T14:36:51.404Z,20.41
2017-12-31T14:39:18.996Z,20.44
2017-12-31T14:41:46.526Z,20.44
2017-12-31T14:44:14.122Z,20.46
2017-12-31T14:46:41.663Z,20.44
2017-12-31T14:49:09.263Z,20.44
2017-12-31T14:51:36.869Z,20.43
2017-12-31T14:54:04.435Z,20.39
2017-12-31T14:56:32.030Z,20.42
2017-12-31T14:58:59.604Z,20.44
2017-12-31T15:01:27.216Z,20.49
2017-12-31T15:03:54.746Z,20.50
2017-12-31T15:06:22.300Z,20.53
2017-12-31T15:08:49.912Z,20.56
2017-12-31T15:11:17.439Z,20.60
2017-12-31T15:13:45.056Z,20.64
2017-12-31T15:16:12.632Z,20.68
2017-12-31T15:18:40.163Z,20.70
2017-12-31T15:21:07.692Z,20.73
2017-12-31T15:23:35.260Z,20.75
2017-12-31T15:26:02.832Z,20.77
2017-12-31T15:28:30.369Z,20.81
2017-12-31T15:30:57.979Z,20.84
2017-12-31T15:33:25.519Z,20.86
2017-12-31T15:35:53.103Z,20.90
2017-12-31T15:38:20.634Z,20.94
2017-12-31T15:40:48.228Z,20.97
2017-12-31T15:43:15.784Z,20.99
2017-12-31T15:45:43.377Z,21.00
2017-12-31T15:48:10.912Z,21.00
2017-12-31T15:50:38.503Z,21.01
2017-12-31T15:53:06.062Z,21.02
2017-12-31T15:55:33.600Z,21.01
2017-12-31T15:58:01.126Z,21.01
2017-12-31T16:00:28.661Z,21.01
2017-12-31T16:02:56.259Z,21.01
2017-12-31T16:05:23.847Z,20.99
2017-12-31T16:07:51.458Z,21.01
2017-12-31T16:10:19.055Z,21.01
2017-12-31T16:12:46.617Z,21.05
2017-12-31T16:15:14.186Z,21.06
2017-12-31T16:17:41.740Z,21.07
2017-12-31T16:20:09.270Z,21.06
2017-12-31T16:25:29.941Z,21.08
2017-12-31T16:27:57.531Z,21.11
2017-12-31T16:30:25.067Z,21.10
2017-12-31T16:32:52.594Z,21.10
2017-12-31T16:35:20.209Z,21.11
2017-12-31T16:37:47.750Z,21.11
2017-12-31T16:40:15.274Z,21.12
2017-12-31T16:42:42.830Z,21.11
2017-12-31T16:45:10.433Z,21.09
2017-12-31T16:47:38.039Z,21.10
2017-12-31T16:50:05.649Z,21.10
2017-12-31T16:52:33.200Z,21.11
2017-12-31T16:55:00.728Z,21.12
2017-12-31T16:57:28.321Z,21.12
2017-12-31T16:59:55.948Z,21.11
2017-12-31T17:02:23.740Z,21.11
2017-12-31T17:04:51.286Z,21.11
2017-12-31T17:07:18.889Z,21.11
2017-12-31T17:09:46.432Z,21.11
2017-12-31T17:12:13.975Z,21.12
2017-12-31T17:14:41.603Z,21.09
2017-12-31T17:17:09.245Z,21.08
2017-12-31T17:19:36.853Z,21.06
2017-12-31T17:22:04.452Z,21.06
2017-12-31T17:24:31.978Z,21.07
2017-12-31T17:26:59.510Z,21.06
2017-12-31T17:29:27.077Z,21.08
2017-12-31T17:31:54.692Z,21.08
2017-12-31T17:34:22.222Z,21.09
2017-12-31T17:36:49.836Z,21.09
2017-12-31T17:39:17.436Z,21.09
2017-12-31T17:41:44.962Z,21.10
2017-12-31T17:44:12.492Z,21.10
2017-12-31T17:46:40.092Z,21.08
2017-12-31T17:49:07.728Z,21.11
2017-12-31T17:51:35.328Z,21.13
2017-12-31T17:54:02.928Z,21.15
2017-12-31T17:56:30.512Z,21.18
2017-12-31T17:58:58.116Z,21.20
2017-12-31T18:01:25.743Z,21.21
2017-12-31T18:03:53.342Z,21.22
2017-12-31T18:06:20.895Z,21.20
2017-12-31T18:08:48.427Z,21.17
2017-12-31T18:11:15.955Z,21.14
2017-12-31T18:13:43.498Z,21.10
2017-12-31T18:16:11.026Z,21.08
2017-12-31T18:18:38.633Z,21.05
2017-12-31T18:21:06.234Z,21.06
2017-12-31T18:23:33.764Z,21.06
2017-12-31T18:26:01.291Z,21.05
2017-12-31T18:28:28.859Z,21.06
2017-12-31T18:30:56.401Z,21.04
2017-12-31T18:33:24.008Z,21.02
2017-12-31T18:35:51.583Z,21.01
2017-12-31T18:38:19.141Z,20.97
2017-12-31T18:40:46.691Z,20.96
2017-12-31T18:43:14.256Z,20.95
2017-12-31T18:45:41.848Z,20.93
2017-12-31T18:48:09.465Z,20.94
2017-12-31T18:50:37.088Z,20.93
2017-12-31T18:53:04.610Z,20.92
2017-12-31T18:55:32.209Z,20.92
2017-12-31T18:57:59.805Z,20.92
2017-12-31T19:00:27.327Z,20.94
2017-12-31T19:02:54.856Z,20.95
2017-12-31T19:05:22.391Z,20.96
2017-12-31T19:07:50.034Z,21.00
2017-12-31T19:10:17.741Z,21.02
2017-12-31T19:12:45.364Z,21.05
2017-12-31T19:15:12.977Z,21.07
2017-12-31T19:17:40.588Z,21.10
2017-12-31T19:20:08.150Z,21.11
2017-12-31T19:22:35.674Z,21.12
2017-12-31T19:25:03.279Z,21.14
2017-12-31T19:27:30.810Z,21.15
2017-12-31T19:29:58.335Z,21.19
2017-12-31T19:32:25.938Z,21.22
2017-12-31T19:34:53.529Z,21.23
2017-12-31T19:37:21.151Z,21.25
2017-12-31T19:39:48.784Z,21.26
2017-12-31T19:42:16.319Z,21.26
2017-12-31T19:44:43.958Z,21.28
2017-12-31T19:47:11.494Z,21.28
2017-12-31T19:49:39.018Z,21.28
2017-12-31T19:52:06.550Z,21.29
2017-12-31T19:54:34.128Z,21.27
2017-12-31T19:57:01.735Z,21.26
2017-12-31T19:59:29.344Z,21.25
2017-12-31T20:01:56.878Z,21.32
2017-12-31T20:04:24.423Z,21.34
2017-12-31T20:06:52.029Z,21.28
2017-12-31T20:09:19.573Z,21.26
2017-12-31T20:11:47.111Z,21.28
2017-12-31T20:14:14.765Z,21.25
2017-12-31T20:16:42.384Z,21.26
2017-12-31T20:19:09.913Z,21.23
2017-12-31T20:21:37.475Z,21.19
2017-12-31T20:24:05.012Z,21.16
2017-12-31T20:26:32.543Z,21.09
2017-12-31T20:29:00.086Z,21.06
2017-12-31T20:31:27.618Z,20.98
2017-12-31T20:33:55.467Z,20.88
2017-12-31T20:36:23.002Z,20.81
2017-12-31T20:38:50.624Z,20.74
2017-12-31T20:41:18.146Z,20.65
2017-12-31T20:43:45.741Z,20.59
2017-12-31T20:46:13.266Z,20.52
2017-12-31T20:48:40.872Z,20.47
2017-12-31T20:51:08.407Z,20.42
2017-12-31T20:53:35.948Z,20.39
2017-12-31T20:56:03.576Z,20.37
2017-12-31T20:58:31.107Z,20.34
2017-12-31T21:00:58.704Z,20.31
2017-12-31T21:03:26.305Z,20.31
2017-12-31T21:05:53.835Z,20.28
2017-12-31T21:08:21.428Z,20.27
2017-12-31T21:10:49.024Z,20.24
2017-12-31T21:13:16.581Z,20.22
2017-12-31T21:15:44.114Z,20.21
2017-12-31T21:18:11.715Z,20.19
2017-12-31T21:20:39.303Z,20.18
2017-12-31T21:23:06.830Z,20.17
2017-12-31T21:25:34.351Z,20.15
2017-12-31T21:28:01.874Z,20.13
2017-12-31T21:30:29.398Z,20.12
2017-12-31T21:32:56.925Z,20.11
2017-12-31T21:35:24.532Z,20.09
2017-12-31T21:37:52.133Z,20.09
2017-12-31T21:40:19.687Z,20.08
2017-12-31T21:42:47.226Z,20.06
2017-12-31T21:45:14.833Z,20.06
2017-12-31T21:47:42.429Z,20.05
2017-12-31T21:50:09.975Z,20.03
2017-12-31T21:52:37.561Z,20.03
2017-12-31T21:55:05.089Z,20.03
2017-12-31T21:57:32.650Z,20.01
2017-12-31T22:00:00.245Z,20.01
2017-12-31T22:02:27.770Z,19.99
2017-12-31T22:04:55.364Z,20.00
2017-12-31T22:07:22.896Z,19.99
2017-12-31T22:09:50.426Z,19.98
2017-12-31T22:12:17.964Z,19.99
2017-12-31T22:14:45.528Z,19.99
2017-12-31T22:17:13.055Z,19.99
2017-12-31T22:19:40.648Z,19.99
2017-12-31T22:22:08.175Z,19.98
2017-12-31T22:24:35.707Z,19.97
2017-12-31T22:27:03.305Z,19.95
2017-12-31T22:29:30.827Z,19.93
2017-12-31T22:31:58.444Z,19.92
2017-12-31T22:34:25.971Z,19.91
2017-12-31T22:36:53.505Z,19.91
2017-12-31T22:39:21.031Z,19.90
2017-12-31T22:41:48.570Z,19.90
2017-12-31T22:44:16.191Z,19.90
2017-12-31T22:46:43.716Z,19.89
2017-12-31T22:49:11.234Z,19.89
2017-12-31T22:51:38.826Z,19.88
2017-12-31T22:54:06.342Z,19.88
2017-12-31T22:56:33.955Z,19.88
2017-12-31T22:59:01.552Z,19.88
2017-12-31T23:01:29.111Z,19.87
2017-12-31T23:03:56.639Z,19.87
2017-12-31T23:06:24.239Z,19.87
2017-12-31T23:08:51.840Z,19.87
2017-12-31T23:11:19.429Z,19.87
2017-12-31T23:13:46.964Z,19.87
2017-12-31T23:16:14.486Z,19.87
2017-12-31T23:18:42.121Z,19.87
2017-12-31T23:21:09.655Z,19.86
2017-12-31T23:23:37.187Z,19.85
2017-12-31T23:26:04.779Z,19.84
2017-12-31T23:28:32.364Z,19.83
2017-12-31T23:30:59.896Z,19.82
2017-12-31T23:33:27.497Z,19.84
2017-12-31T23:35:55.117Z,19.86
2017-12-31T23:38:22.643Z,19.89
2017-12-31T23:40:50.191Z,19.96
2017-12-31T23:43:17.780Z,20.00
2017-12-31T23:45:45.379Z,20.01
2017-12-31T23:48:12.969Z,20.05
2017-12-31T23:50:40.490Z,20.09
2017-12-31T23:53:08.081Z,20.11
2017-12-31T23:55:35.677Z,20.15
2017-12-31T23:58:03.215Z,20.14
